sensor_id;sensor_type;location;lat;lon;timestamp;temperature;humidity
15450;DHT22;7826;49.784;9.934;2022-08-14T00:00:52;21.20;74.90
15450;DHT22;7826;49.784;9.934;2022-08-14T00:03:23;21.20;74.80
15450;DHT22;7826;49.784;9.934;2022-08-14T00:05:51;21.20;74.90
15450;DHT22;7826;49.784;9.934;2022-08-14T00:08:17;21.20;75.00
15450;DHT22;7826;49.784;9.934;2022-08-14T00:10:44;21.30;75.10
15450;DHT22;7826;49.784;9.934;2022-08-14T00:13:11;21.30;75.40
15450;DHT22;7826;49.784;9.934;2022-08-14T00:15:42;21.20;76.00
15450;DHT22;7826;49.784;9.934;2022-08-14T00:18:11;21.20;75.40
15450;DHT22;7826;49.784;9.934;2022-08-14T00:20:39;21.20;75.50
15450;DHT22;7826;49.784;9.934;2022-08-14T00:23:07;21.20;75.30
15450;DHT22;7826;49.784;9.934;2022-08-14T00:25:33;21.20;75.60
15450;DHT22;7826;49.784;9.934;2022-08-14T00:28:00;21.20;75.70
15450;DHT22;7826;49.784;9.934;2022-08-14T00:30:27;21.20;75.70
15450;DHT22;7826;49.784;9.934;2022-08-14T00:32:54;21.20;75.80
15450;DHT22;7826;49.784;9.934;2022-08-14T00:35:21;21.20;76.10
15450;DHT22;7826;49.784;9.934;2022-08-14T00:37:47;21.10;76.10
15450;DHT22;7826;49.784;9.934;2022-08-14T00:40:16;21.10;77.10
15450;DHT22;7826;49.784;9.934;2022-08-14T00:42:45;21.10;76.40
15450;DHT22;7826;49.784;9.934;2022-08-14T00:45:13;21.10;76.60
15450;DHT22;7826;49.784;9.934;2022-08-14T00:47:45;21.00;76.70
15450;DHT22;7826;49.784;9.934;2022-08-14T00:50:16;21.00;77.00
15450;DHT22;7826;49.784;9.934;2022-08-14T00:52:45;21.00;77.30
15450;DHT22;7826;49.784;9.934;2022-08-14T00:55:11;20.90;77.20
15450;DHT22;7826;49.784;9.934;2022-08-14T00:57:38;20.90;77.50
15450;DHT22;7826;49.784;9.934;2022-08-14T01:00:14;20.90;78.30
15450;DHT22;7826;49.784;9.934;2022-08-14T01:02:42;20.90;77.80
15450;DHT22;7826;49.784;9.934;2022-08-14T01:05:11;20.80;77.90
15450;DHT22;7826;49.784;9.934;2022-08-14T01:07:53;20.80;78.00
15450;DHT22;7826;49.784;9.934;2022-08-14T01:10:24;20.70;78.10
15450;DHT22;7826;49.784;9.934;2022-08-14T01:13:12;20.70;78.20
15450;DHT22;7826;49.784;9.934;2022-08-14T01:15:47;20.70;78.40
15450;DHT22;7826;49.784;9.934;2022-08-14T01:18:14;20.70;78.60
15450;DHT22;7826;49.784;9.934;2022-08-14T01:21:00;20.60;78.70
15450;DHT22;7826;49.784;9.934;2022-08-14T01:23:30;20.60;78.90
15450;DHT22;7826;49.784;9.934;2022-08-14T01:25:57;20.50;79.00
15450;DHT22;7826;49.784;9.934;2022-08-14T01:28:24;20.50;79.20
15450;DHT22;7826;49.784;9.934;2022-08-14T01:30:59;20.50;79.40
15450;DHT22;7826;49.784;9.934;2022-08-14T01:33:27;20.50;79.50
15450;DHT22;7826;49.784;9.934;2022-08-14T01:35:56;20.40;79.60
15450;DHT22;7826;49.784;9.934;2022-08-14T01:38:29;20.40;79.90
15450;DHT22;7826;49.784;9.934;2022-08-14T01:41:04;20.30;79.80
15450;DHT22;7826;49.784;9.934;2022-08-14T01:43:31;20.30;80.30
15450;DHT22;7826;49.784;9.934;2022-08-14T01:46:03;20.30;80.40
15450;DHT22;7826;49.784;9.934;2022-08-14T01:48:31;20.20;80.70
15450;DHT22;7826;49.784;9.934;2022-08-14T01:50:59;20.20;80.80
15450;DHT22;7826;49.784;9.934;2022-08-14T01:53:28;20.20;81.10
15450;DHT22;7826;49.784;9.934;2022-08-14T01:56:02;20.20;81.90
15450;DHT22;7826;49.784;9.934;2022-08-14T01:58:29;20.20;81.30
15450;DHT22;7826;49.784;9.934;2022-08-14T02:00:56;20.10;81.30
15450;DHT22;7826;49.784;9.934;2022-08-14T02:03:26;20.10;81.50
15450;DHT22;7826;49.784;9.934;2022-08-14T02:05:55;20.00;81.60
15450;DHT22;7826;49.784;9.934;2022-08-14T02:08:23;20.00;81.80
15450;DHT22;7826;49.784;9.934;2022-08-14T02:10:53;20.00;82.10
15450;DHT22;7826;49.784;9.934;2022-08-14T02:13:39;19.90;82.30
15450;DHT22;7826;49.784;9.934;2022-08-14T02:16:06;19.80;82.60
15450;DHT22;7826;49.784;9.934;2022-08-14T02:18:32;19.80;82.90
15450;DHT22;7826;49.784;9.934;2022-08-14T02:20:58;19.80;83.20
15450;DHT22;7826;49.784;9.934;2022-08-14T02:23:25;19.80;83.30
15450;DHT22;7826;49.784;9.934;2022-08-14T02:25:51;19.80;83.60
15450;DHT22;7826;49.784;9.934;2022-08-14T02:28:17;19.70;83.60
15450;DHT22;7826;49.784;9.934;2022-08-14T02:30:44;19.70;83.80
15450;DHT22;7826;49.784;9.934;2022-08-14T02:33:16;19.70;84.20
15450;DHT22;7826;49.784;9.934;2022-08-14T02:35:43;19.60;84.30
15450;DHT22;7826;49.784;9.934;2022-08-14T02:38:10;19.60;84.60
15450;DHT22;7826;49.784;9.934;2022-08-14T02:40:36;19.60;85.30
15450;DHT22;7826;49.784;9.934;2022-08-14T02:43:03;19.60;84.90
15450;DHT22;7826;49.784;9.934;2022-08-14T02:45:32;19.60;84.90
15450;DHT22;7826;49.784;9.934;2022-08-14T02:48:03;19.50;85.00
15450;DHT22;7826;49.784;9.934;2022-08-14T02:50:32;19.50;85.20
15450;DHT22;7826;49.784;9.934;2022-08-14T02:53:02;19.50;85.50
15450;DHT22;7826;49.784;9.934;2022-08-14T02:55:29;19.50;85.70
15450;DHT22;7826;49.784;9.934;2022-08-14T02:57:57;19.50;85.60
15450;DHT22;7826;49.784;9.934;2022-08-14T03:00:23;19.40;85.50
15450;DHT22;7826;49.784;9.934;2022-08-14T03:02:50;19.40;86.00
15450;DHT22;7826;49.784;9.934;2022-08-14T03:05:17;19.40;86.50
15450;DHT22;7826;49.784;9.934;2022-08-14T03:07:43;19.40;86.60
15450;DHT22;7826;49.784;9.934;2022-08-14T03:10:10;19.40;86.80
15450;DHT22;7826;49.784;9.934;2022-08-14T03:12:36;19.40;86.90
15450;DHT22;7826;49.784;9.934;2022-08-14T03:15:04;19.40;86.80
15450;DHT22;7826;49.784;9.934;2022-08-14T03:17:39;19.30;87.30
15450;DHT22;7826;49.784;9.934;2022-08-14T03:20:08;19.30;87.10
15450;DHT22;7826;49.784;9.934;2022-08-14T03:22:35;19.30;87.70
15450;DHT22;7826;49.784;9.934;2022-08-14T03:25:02;19.30;88.00
15450;DHT22;7826;49.784;9.934;2022-08-14T03:27:30;19.30;88.30
15450;DHT22;7826;49.784;9.934;2022-08-14T03:29:56;19.30;88.20
15450;DHT22;7826;49.784;9.934;2022-08-14T03:32:23;19.30;88.50
15450;DHT22;7826;49.784;9.934;2022-08-14T03:34:49;19.20;88.30
15450;DHT22;7826;49.784;9.934;2022-08-14T03:37:15;19.20;88.50
15450;DHT22;7826;49.784;9.934;2022-08-14T03:39:42;19.20;89.20
15450;DHT22;7826;49.784;9.934;2022-08-14T03:42:08;19.10;89.50
15450;DHT22;7826;49.784;9.934;2022-08-14T03:44:34;19.10;89.80
15450;DHT22;7826;49.784;9.934;2022-08-14T03:47:19;19.10;90.00
15450;DHT22;7826;49.784;9.934;2022-08-14T03:49:46;19.00;90.20
15450;DHT22;7826;49.784;9.934;2022-08-14T03:52:13;19.00;90.40
15450;DHT22;7826;49.784;9.934;2022-08-14T03:54:39;19.00;90.40
15450;DHT22;7826;49.784;9.934;2022-08-14T03:57:06;18.90;90.50
15450;DHT22;7826;49.784;9.934;2022-08-14T03:59:33;18.90;90.70
15450;DHT22;7826;49.784;9.934;2022-08-14T04:02:00;18.90;90.70
15450;DHT22;7826;49.784;9.934;2022-08-14T04:04:29;18.90;90.90
15450;DHT22;7826;49.784;9.934;2022-08-14T04:06:56;18.90;91.00
15450;DHT22;7826;49.784;9.934;2022-08-14T04:09:24;18.80;91.10
15450;DHT22;7826;49.784;9.934;2022-08-14T04:11:51;18.80;91.30
15450;DHT22;7826;49.784;9.934;2022-08-14T04:14:17;18.70;91.30
15450;DHT22;7826;49.784;9.934;2022-08-14T04:16:43;18.80;91.60
15450;DHT22;7826;49.784;9.934;2022-08-14T04:19:11;18.70;91.70
15450;DHT22;7826;49.784;9.934;2022-08-14T04:21:37;18.70;91.80
15450;DHT22;7826;49.784;9.934;2022-08-14T04:24:04;18.70;91.90
15450;DHT22;7826;49.784;9.934;2022-08-14T04:26:31;18.70;92.00
15450;DHT22;7826;49.784;9.934;2022-08-14T04:28:57;18.70;92.00
15450;DHT22;7826;49.784;9.934;2022-08-14T04:31:24;18.60;92.20
15450;DHT22;7826;49.784;9.934;2022-08-14T04:33:51;18.60;92.30
15450;DHT22;7826;49.784;9.934;2022-08-14T04:36:18;18.60;92.40
15450;DHT22;7826;49.784;9.934;2022-08-14T04:38:44;18.60;92.50
15450;DHT22;7826;49.784;9.934;2022-08-14T04:41:29;18.60;92.60
15450;DHT22;7826;49.784;9.934;2022-08-14T04:44:14;18.70;92.80
15450;DHT22;7826;49.784;9.934;2022-08-14T04:46:40;18.80;92.80
15450;DHT22;7826;49.784;9.934;2022-08-14T04:49:27;18.80;92.70
15450;DHT22;7826;49.784;9.934;2022-08-14T04:51:54;18.90;92.90
15450;DHT22;7826;49.784;9.934;2022-08-14T04:54:21;18.90;92.70
15450;DHT22;7826;49.784;9.934;2022-08-14T04:56:47;19.00;92.70
15450;DHT22;7826;49.784;9.934;2022-08-14T04:59:14;19.00;92.40
15450;DHT22;7826;49.784;9.934;2022-08-14T05:01:41;19.00;92.50
15450;DHT22;7826;49.784;9.934;2022-08-14T05:04:10;19.10;92.60
15450;DHT22;7826;49.784;9.934;2022-08-14T05:06:38;19.20;92.20
15450;DHT22;7826;49.784;9.934;2022-08-14T05:09:05;19.30;92.10
15450;DHT22;7826;49.784;9.934;2022-08-14T05:11:32;19.50;91.80
15450;DHT22;7826;49.784;9.934;2022-08-14T05:14:01;19.70;91.80
15450;DHT22;7826;49.784;9.934;2022-08-14T05:16:28;20.00;91.40
15450;DHT22;7826;49.784;9.934;2022-08-14T05:18:56;20.10;90.60
15450;DHT22;7826;49.784;9.934;2022-08-14T05:21:22;20.30;90.30
15450;DHT22;7826;49.784;9.934;2022-08-14T05:23:50;20.50;90.20
15450;DHT22;7826;49.784;9.934;2022-08-14T05:26:17;20.70;88.80
15450;DHT22;7826;49.784;9.934;2022-08-14T05:28:45;21.00;89.10
15450;DHT22;7826;49.784;9.934;2022-08-14T05:31:13;21.20;87.00
15450;DHT22;7826;49.784;9.934;2022-08-14T05:33:41;21.30;86.00
15450;DHT22;7826;49.784;9.934;2022-08-14T05:36:09;21.30;86.40
15450;DHT22;7826;49.784;9.934;2022-08-14T05:38:39;21.40;84.50
15450;DHT22;7826;49.784;9.934;2022-08-14T05:41:09;21.50;84.30
15450;DHT22;7826;49.784;9.934;2022-08-14T05:43:38;21.60;84.80
15450;DHT22;7826;49.784;9.934;2022-08-14T05:46:09;21.80;83.80
15450;DHT22;7826;49.784;9.934;2022-08-14T05:48:35;21.90;82.10
15450;DHT22;7826;49.784;9.934;2022-08-14T05:51:02;21.90;83.20
15450;DHT22;7826;49.784;9.934;2022-08-14T05:53:28;21.90;82.40
15450;DHT22;7826;49.784;9.934;2022-08-14T05:55:55;22.00;81.50
15450;DHT22;7826;49.784;9.934;2022-08-14T05:58:22;22.10;80.50
15450;DHT22;7826;49.784;9.934;2022-08-14T06:00:48;22.10;80.60
15450;DHT22;7826;49.784;9.934;2022-08-14T06:03:18;22.10;81.00
15450;DHT22;7826;49.784;9.934;2022-08-14T06:05:46;22.20;80.90
15450;DHT22;7826;49.784;9.934;2022-08-14T06:08:27;22.40;80.50
15450;DHT22;7826;49.784;9.934;2022-08-14T06:10:56;22.50;79.50
15450;DHT22;7826;49.784;9.934;2022-08-14T06:13:41;22.70;78.60
15450;DHT22;7826;49.784;9.934;2022-08-14T06:16:08;22.70;78.10
15450;DHT22;7826;49.784;9.934;2022-08-14T06:18:35;23.00;78.50
15450;DHT22;7826;49.784;9.934;2022-08-14T06:21:03;23.10;77.50
15450;DHT22;7826;49.784;9.934;2022-08-14T06:23:29;23.30;77.50
15450;DHT22;7826;49.784;9.934;2022-08-14T06:25:56;23.50;76.20
15450;DHT22;7826;49.784;9.934;2022-08-14T06:28:24;23.70;75.90
15450;DHT22;7826;49.784;9.934;2022-08-14T06:30:51;24.00;74.80
15450;DHT22;7826;49.784;9.934;2022-08-14T06:33:19;24.00;73.90
15450;DHT22;7826;49.784;9.934;2022-08-14T06:35:46;24.40;74.50
15450;DHT22;7826;49.784;9.934;2022-08-14T06:38:15;24.70;73.10
15450;DHT22;7826;49.784;9.934;2022-08-14T06:40:43;24.70;71.00
15450;DHT22;7826;49.784;9.934;2022-08-14T06:43:11;24.70;70.80
15450;DHT22;7826;49.784;9.934;2022-08-14T06:45:40;24.60;70.40
15450;DHT22;7826;49.784;9.934;2022-08-14T06:48:18;24.70;71.50
15450;DHT22;7826;49.784;9.934;2022-08-14T06:50:46;24.90;70.30
15450;DHT22;7826;49.784;9.934;2022-08-14T06:53:12;25.00;70.90
15450;DHT22;7826;49.784;9.934;2022-08-14T06:55:40;25.20;69.30
15450;DHT22;7826;49.784;9.934;2022-08-14T06:58:11;25.40;70.20
15450;DHT22;7826;49.784;9.934;2022-08-14T07:00:37;25.80;68.60
15450;DHT22;7826;49.784;9.934;2022-08-14T07:03:04;25.90;68.00
15450;DHT22;7826;49.784;9.934;2022-08-14T07:05:49;26.20;68.70
15450;DHT22;7826;49.784;9.934;2022-08-14T07:10:45;26.80;66.90
15450;DHT22;7826;49.784;9.934;2022-08-14T07:13:12;27.20;64.50
15450;DHT22;7826;49.784;9.934;2022-08-14T07:15:45;26.90;62.10
15450;DHT22;7826;49.784;9.934;2022-08-14T07:18:14;26.50;64.00
15450;DHT22;7826;49.784;9.934;2022-08-14T07:20:44;26.20;65.10
15450;DHT22;7826;49.784;9.934;2022-08-14T07:23:10;25.90;67.40
15450;DHT22;7826;49.784;9.934;2022-08-14T07:25:38;26.20;65.70
15450;DHT22;7826;49.784;9.934;2022-08-14T07:28:18;26.50;64.90
15450;DHT22;7826;49.784;9.934;2022-08-14T07:30:45;26.40;65.50
15450;DHT22;7826;49.784;9.934;2022-08-14T07:33:12;26.90;66.00
15450;DHT22;7826;49.784;9.934;2022-08-14T07:35:39;27.30;64.40
15450;DHT22;7826;49.784;9.934;2022-08-14T07:38:06;27.40;62.50
15450;DHT22;7826;49.784;9.934;2022-08-14T07:40:33;27.40;60.50
15450;DHT22;7826;49.784;9.934;2022-08-14T07:43:00;27.70;62.50
15450;DHT22;7826;49.784;9.934;2022-08-14T07:45:27;28.30;60.50
15450;DHT22;7826;49.784;9.934;2022-08-14T07:47:54;28.90;59.10
15450;DHT22;7826;49.784;9.934;2022-08-14T07:50:23;29.20;58.50
15450;DHT22;7826;49.784;9.934;2022-08-14T07:52:50;29.90;57.60
15450;DHT22;7826;49.784;9.934;2022-08-14T07:55:17;29.80;55.50
15450;DHT22;7826;49.784;9.934;2022-08-14T07:57:46;29.70;56.30
15450;DHT22;7826;49.784;9.934;2022-08-14T08:00:14;30.00;55.40
15450;DHT22;7826;49.784;9.934;2022-08-14T08:02:44;29.80;54.80
15450;DHT22;7826;49.784;9.934;2022-08-14T08:05:11;30.00;55.60
15450;DHT22;7826;49.784;9.934;2022-08-14T08:07:39;30.30;53.30
15450;DHT22;7826;49.784;9.934;2022-08-14T08:10:09;30.10;53.90
15450;DHT22;7826;49.784;9.934;2022-08-14T08:13:00;30.30;55.30
15450;DHT22;7826;49.784;9.934;2022-08-14T08:15:28;30.90;53.60
15450;DHT22;7826;49.784;9.934;2022-08-14T08:17:55;31.70;52.50
15450;DHT22;7826;49.784;9.934;2022-08-14T08:20:23;32.60;51.10
15450;DHT22;7826;49.784;9.934;2022-08-14T08:22:55;32.70;48.70
15450;DHT22;7826;49.784;9.934;2022-08-14T08:25:25;32.70;48.80
15450;DHT22;7826;49.784;9.934;2022-08-14T08:28:03;32.80;48.90
15450;DHT22;7826;49.784;9.934;2022-08-14T08:30:31;32.70;48.80
15450;DHT22;7826;49.784;9.934;2022-08-14T08:33:00;33.20;48.50
15450;DHT22;7826;49.784;9.934;2022-08-14T08:35:29;33.80;48.40
15450;DHT22;7826;49.784;9.934;2022-08-14T08:38:07;34.00;48.10
15450;DHT22;7826;49.784;9.934;2022-08-14T08:40:40;33.80;46.80
15450;DHT22;7826;49.784;9.934;2022-08-14T08:43:15;33.80;47.50
15450;DHT22;7826;49.784;9.934;2022-08-14T08:45:43;34.00;47.30
15450;DHT22;7826;49.784;9.934;2022-08-14T08:48:09;34.00;46.10
15450;DHT22;7826;49.784;9.934;2022-08-14T08:50:37;33.80;45.20
15450;DHT22;7826;49.784;9.934;2022-08-14T08:53:08;34.00;48.40
15450;DHT22;7826;49.784;9.934;2022-08-14T08:55:38;34.50;48.80
15450;DHT22;7826;49.784;9.934;2022-08-14T08:58:09;34.20;45.20
15450;DHT22;7826;49.784;9.934;2022-08-14T09:00:37;33.70;45.40
15450;DHT22;7826;49.784;9.934;2022-08-14T09:03:12;32.90;45.50
15450;DHT22;7826;49.784;9.934;2022-08-14T09:05:58;32.70;46.90
15450;DHT22;7826;49.784;9.934;2022-08-14T09:08:28;32.30;47.00
15450;DHT22;7826;49.784;9.934;2022-08-14T09:10:56;32.00;48.10
15450;DHT22;7826;49.784;9.934;2022-08-14T09:13:22;31.70;48.10
15450;DHT22;7826;49.784;9.934;2022-08-14T09:15:53;32.00;49.80
15450;DHT22;7826;49.784;9.934;2022-08-14T09:18:21;32.00;48.40
15450;DHT22;7826;49.784;9.934;2022-08-14T09:20:50;32.60;49.80
15450;DHT22;7826;49.784;9.934;2022-08-14T09:23:17;33.00;46.40
15450;DHT22;7826;49.784;9.934;2022-08-14T09:25:47;33.10;46.00
15450;DHT22;7826;49.784;9.934;2022-08-14T09:28:17;33.20;44.40
15450;DHT22;7826;49.784;9.934;2022-08-14T09:30:48;33.10;44.30
15450;DHT22;7826;49.784;9.934;2022-08-14T09:45:00;32.50;43.70
15450;DHT22;7826;49.784;9.934;2022-08-14T09:47:52;31.90;44.50
15450;DHT22;7826;49.784;9.934;2022-08-14T09:52:57;31.40;45.30
15450;DHT22;7826;49.784;9.934;2022-08-14T09:55:25;31.40;44.00
15450;DHT22;7826;49.784;9.934;2022-08-14T09:58:15;30.60;45.90
15450;DHT22;7826;49.784;9.934;2022-08-14T10:00:51;30.40;47.40
15450;DHT22;7826;49.784;9.934;2022-08-14T10:03:30;30.60;46.90
15450;DHT22;7826;49.784;9.934;2022-08-14T10:06:09;30.70;47.10
15450;DHT22;7826;49.784;9.934;2022-08-14T10:08:42;30.40;46.90
15450;DHT22;7826;49.784;9.934;2022-08-14T10:11:29;30.30;48.30
15450;DHT22;7826;49.784;9.934;2022-08-14T10:14:18;30.50;47.80
15450;DHT22;7826;49.784;9.934;2022-08-14T10:16:52;30.80;47.30
15450;DHT22;7826;49.784;9.934;2022-08-14T10:19:24;30.90;45.90
15450;DHT22;7826;49.784;9.934;2022-08-14T10:22:00;30.60;46.70
15450;DHT22;7826;49.784;9.934;2022-08-14T10:24:38;30.70;46.70
15450;DHT22;7826;49.784;9.934;2022-08-14T10:27:17;30.70;46.80
15450;DHT22;7826;49.784;9.934;2022-08-14T10:29:48;30.70;47.00
15450;DHT22;7826;49.784;9.934;2022-08-14T10:32:15;30.70;47.00
15450;DHT22;7826;49.784;9.934;2022-08-14T10:34:42;30.80;47.00
15450;DHT22;7826;49.784;9.934;2022-08-14T10:37:12;30.50;45.70
15450;DHT22;7826;49.784;9.934;2022-08-14T10:39:41;30.40;46.40
15450;DHT22;7826;49.784;9.934;2022-08-14T10:42:10;30.30;46.00
15450;DHT22;7826;49.784;9.934;2022-08-14T10:44:39;30.10;45.40
15450;DHT22;7826;49.784;9.934;2022-08-14T10:47:07;29.70;46.00
15450;DHT22;7826;49.784;9.934;2022-08-14T10:49:41;29.60;46.60
15450;DHT22;7826;49.784;9.934;2022-08-14T10:52:23;29.50;46.00
15450;DHT22;7826;49.784;9.934;2022-08-14T10:54:51;29.30;45.40
15450;DHT22;7826;49.784;9.934;2022-08-14T11:02:20;29.30;46.80
15450;DHT22;7826;49.784;9.934;2022-08-14T11:05:13;29.20;47.20
15450;DHT22;7826;49.784;9.934;2022-08-14T11:08:00;29.20;46.60
15450;DHT22;7826;49.784;9.934;2022-08-14T11:10:53;29.10;47.20
15450;DHT22;7826;49.784;9.934;2022-08-14T11:13:23;29.20;47.00
15450;DHT22;7826;49.784;9.934;2022-08-14T11:15:50;29.40;46.70
15450;DHT22;7826;49.784;9.934;2022-08-14T11:18:18;29.30;46.80
15450;DHT22;7826;49.784;9.934;2022-08-14T11:20:48;29.30;46.90
15450;DHT22;7826;49.784;9.934;2022-08-14T11:23:15;29.20;47.50
15450;DHT22;7826;49.784;9.934;2022-08-14T11:25:44;29.20;48.00
15450;DHT22;7826;49.784;9.934;2022-08-14T11:28:12;29.50;47.50
15450;DHT22;7826;49.784;9.934;2022-08-14T11:30:42;29.60;46.30
15450;DHT22;7826;49.784;9.934;2022-08-14T11:33:10;29.60;46.60
15450;DHT22;7826;49.784;9.934;2022-08-14T11:35:37;29.70;46.70
15450;DHT22;7826;49.784;9.934;2022-08-14T11:38:05;29.60;46.60
15450;DHT22;7826;49.784;9.934;2022-08-14T11:40:37;29.60;47.50
15450;DHT22;7826;49.784;9.934;2022-08-14T11:43:06;29.60;47.10
15450;DHT22;7826;49.784;9.934;2022-08-14T11:45:34;29.70;47.40
15450;DHT22;7826;49.784;9.934;2022-08-14T11:48:23;29.70;46.10
15450;DHT22;7826;49.784;9.934;2022-08-14T11:50:51;29.80;45.90
15450;DHT22;7826;49.784;9.934;2022-08-14T11:53:25;29.70;45.80
15450;DHT22;7826;49.784;9.934;2022-08-14T11:55:55;29.70;46.30
15450;DHT22;7826;49.784;9.934;2022-08-14T11:58:28;29.80;46.00
15450;DHT22;7826;49.784;9.934;2022-08-14T12:00:59;30.00;46.10
15450;DHT22;7826;49.784;9.934;2022-08-14T12:06:09;30.20;45.70
15450;DHT22;7826;49.784;9.934;2022-08-14T12:08:38;30.30;45.90
15450;DHT22;7826;49.784;9.934;2022-08-14T12:11:07;30.40;45.00
15450;DHT22;7826;49.784;9.934;2022-08-14T12:13:34;30.20;45.00
15450;DHT22;7826;49.784;9.934;2022-08-14T12:16:03;30.00;45.20
15450;DHT22;7826;49.784;9.934;2022-08-14T12:18:34;30.20;45.70
15450;DHT22;7826;49.784;9.934;2022-08-14T12:21:29;30.00;45.30
15450;DHT22;7826;49.784;9.934;2022-08-14T12:24:06;30.10;46.30
15450;DHT22;7826;49.784;9.934;2022-08-14T12:26:33;30.40;46.10
15450;DHT22;7826;49.784;9.934;2022-08-14T12:31:34;30.40;44.90
15450;DHT22;7826;49.784;9.934;2022-08-14T12:34:04;30.30;45.20
15450;DHT22;7826;49.784;9.934;2022-08-14T12:36:31;30.40;45.70
15450;DHT22;7826;49.784;9.934;2022-08-14T12:39:17;30.40;45.10
15450;DHT22;7826;49.784;9.934;2022-08-14T12:41:49;30.30;44.40
15450;DHT22;7826;49.784;9.934;2022-08-14T12:44:39;30.30;44.00
15450;DHT22;7826;49.784;9.934;2022-08-14T12:47:11;30.30;44.00
15450;DHT22;7826;49.784;9.934;2022-08-14T12:49:50;30.30;44.50
15450;DHT22;7826;49.784;9.934;2022-08-14T12:52:37;30.40;45.20
15450;DHT22;7826;49.784;9.934;2022-08-14T12:55:14;30.50;45.20
15450;DHT22;7826;49.784;9.934;2022-08-14T12:57:46;30.60;45.80
15450;DHT22;7826;49.784;9.934;2022-08-14T13:00:19;30.60;45.30
15450;DHT22;7826;49.784;9.934;2022-08-14T13:02:48;30.80;45.10
15450;DHT22;7826;49.784;9.934;2022-08-14T13:05:16;30.90;44.40
15450;DHT22;7826;49.784;9.934;2022-08-14T13:07:42;31.00;44.50
15450;DHT22;7826;49.784;9.934;2022-08-14T13:10:10;31.00;44.20
15450;DHT22;7826;49.784;9.934;2022-08-14T13:12:40;31.00;44.40
15450;DHT22;7826;49.784;9.934;2022-08-14T13:15:09;31.00;44.50
15450;DHT22;7826;49.784;9.934;2022-08-14T13:17:48;30.80;44.00
15450;DHT22;7826;49.784;9.934;2022-08-14T13:20:17;30.80;44.60
15450;DHT22;7826;49.784;9.934;2022-08-14T13:22:44;30.90;44.50
15450;DHT22;7826;49.784;9.934;2022-08-14T13:25:12;30.90;43.90
15450;DHT22;7826;49.784;9.934;2022-08-14T13:27:43;30.80;43.60
15450;DHT22;7826;49.784;9.934;2022-08-14T13:30:10;30.80;43.10
15450;DHT22;7826;49.784;9.934;2022-08-14T13:32:38;30.70;43.20
15450;DHT22;7826;49.784;9.934;2022-08-14T13:35:06;30.70;43.80
15450;DHT22;7826;49.784;9.934;2022-08-14T13:37:33;30.90;44.10
15450;DHT22;7826;49.784;9.934;2022-08-14T13:39:59;31.00;43.60
15450;DHT22;7826;49.784;9.934;2022-08-14T13:42:27;30.80;43.50
15450;DHT22;7826;49.784;9.934;2022-08-14T13:44:55;30.80;43.50
15450;DHT22;7826;49.784;9.934;2022-08-14T13:47:27;30.60;43.70
15450;DHT22;7826;49.784;9.934;2022-08-14T13:50:00;30.50;44.20
15450;DHT22;7826;49.784;9.934;2022-08-14T13:52:53;30.70;43.80
15450;DHT22;7826;49.784;9.934;2022-08-14T13:55:28;30.80;43.90
15450;DHT22;7826;49.784;9.934;2022-08-14T13:58:00;30.80;43.60
15450;DHT22;7826;49.784;9.934;2022-08-14T14:00:26;31.00;43.70
15450;DHT22;7826;49.784;9.934;2022-08-14T14:02:53;31.00;43.30
15450;DHT22;7826;49.784;9.934;2022-08-14T14:05:21;31.20;42.20
15450;DHT22;7826;49.784;9.934;2022-08-14T14:07:50;31.00;41.80
15450;DHT22;7826;49.784;9.934;2022-08-14T14:10:19;31.00;43.00
15450;DHT22;7826;49.784;9.934;2022-08-14T14:12:47;31.20;42.20
15450;DHT22;7826;49.784;9.934;2022-08-14T14:15:17;31.30;41.90
15450;DHT22;7826;49.784;9.934;2022-08-14T14:17:45;31.30;41.90
15450;DHT22;7826;49.784;9.934;2022-08-14T14:20:18;31.20;41.80
15450;DHT22;7826;49.784;9.934;2022-08-14T14:22:46;31.20;41.70
15450;DHT22;7826;49.784;9.934;2022-08-14T14:25:14;31.10;41.60
15450;DHT22;7826;49.784;9.934;2022-08-14T14:27:44;31.20;41.90
15450;DHT22;7826;49.784;9.934;2022-08-14T14:30:12;31.20;41.50
15450;DHT22;7826;49.784;9.934;2022-08-14T14:32:40;31.20;41.20
15450;DHT22;7826;49.784;9.934;2022-08-14T14:35:11;31.10;41.50
15450;DHT22;7826;49.784;9.934;2022-08-14T14:37:41;31.10;41.80
15450;DHT22;7826;49.784;9.934;2022-08-14T14:40:10;31.00;41.80
15450;DHT22;7826;49.784;9.934;2022-08-14T14:42:51;30.90;42.10
15450;DHT22;7826;49.784;9.934;2022-08-14T14:45:22;31.00;41.10
15450;DHT22;7826;49.784;9.934;2022-08-14T14:47:51;30.80;40.90
15450;DHT22;7826;49.784;9.934;2022-08-14T14:50:19;30.80;41.30
15450;DHT22;7826;49.784;9.934;2022-08-14T14:52:46;30.60;41.20
15450;DHT22;7826;49.784;9.934;2022-08-14T14:55:14;30.60;41.30
15450;DHT22;7826;49.784;9.934;2022-08-14T14:57:42;30.50;41.30
15450;DHT22;7826;49.784;9.934;2022-08-14T15:00:15;30.70;41.50
15450;DHT22;7826;49.784;9.934;2022-08-14T15:02:48;30.80;41.70
15450;DHT22;7826;49.784;9.934;2022-08-14T15:05:15;31.00;41.50
15450;DHT22;7826;49.784;9.934;2022-08-14T15:07:43;31.10;41.50
15450;DHT22;7826;49.784;9.934;2022-08-14T15:10:13;31.30;41.30
15450;DHT22;7826;49.784;9.934;2022-08-14T15:12:40;31.30;41.50
15450;DHT22;7826;49.784;9.934;2022-08-14T15:15:09;31.40;40.60
15450;DHT22;7826;49.784;9.934;2022-08-14T15:17:40;31.30;40.20
15450;DHT22;7826;49.784;9.934;2022-08-14T15:20:09;31.30;41.50
15450;DHT22;7826;49.784;9.934;2022-08-14T15:22:36;31.20;40.70
15450;DHT22;7826;49.784;9.934;2022-08-14T15:25:09;31.20;40.90
15450;DHT22;7826;49.784;9.934;2022-08-14T15:27:38;31.10;41.10
15450;DHT22;7826;49.784;9.934;2022-08-14T15:30:06;31.10;41.30
15450;DHT22;7826;49.784;9.934;2022-08-14T15:32:33;31.10;41.30
15450;DHT22;7826;49.784;9.934;2022-08-14T15:35:00;31.20;41.00
15450;DHT22;7826;49.784;9.934;2022-08-14T15:37:27;31.20;41.00
15450;DHT22;7826;49.784;9.934;2022-08-14T15:39:54;31.10;40.90
15450;DHT22;7826;49.784;9.934;2022-08-14T15:42:21;30.90;41.00
15450;DHT22;7826;49.784;9.934;2022-08-14T15:44:51;30.80;41.20
15450;DHT22;7826;49.784;9.934;2022-08-14T15:47:17;30.80;41.10
15450;DHT22;7826;49.784;9.934;2022-08-14T15:49:46;30.90;41.00
15450;DHT22;7826;49.784;9.934;2022-08-14T15:52:12;30.80;40.60
15450;DHT22;7826;49.784;9.934;2022-08-14T15:54:39;30.90;40.80
15450;DHT22;7826;49.784;9.934;2022-08-14T15:57:08;31.00;40.90
15450;DHT22;7826;49.784;9.934;2022-08-14T15:59:36;31.00;40.60
15450;DHT22;7826;49.784;9.934;2022-08-14T16:02:22;31.00;40.30
15450;DHT22;7826;49.784;9.934;2022-08-14T16:04:49;31.10;40.50
15450;DHT22;7826;49.784;9.934;2022-08-14T16:07:16;31.00;40.60
15450;DHT22;7826;49.784;9.934;2022-08-14T16:09:43;31.10;40.70
15450;DHT22;7826;49.784;9.934;2022-08-14T16:12:09;31.00;40.80
15450;DHT22;7826;49.784;9.934;2022-08-14T16:14:36;31.10;40.90
15450;DHT22;7826;49.784;9.934;2022-08-14T16:17:04;31.10;40.80
15450;DHT22;7826;49.784;9.934;2022-08-14T16:19:33;31.10;40.80
15450;DHT22;7826;49.784;9.934;2022-08-14T16:22:03;31.20;40.40
15450;DHT22;7826;49.784;9.934;2022-08-14T16:24:36;31.20;40.10
15450;DHT22;7826;49.784;9.934;2022-08-14T16:27:05;31.30;40.30
15450;DHT22;7826;49.784;9.934;2022-08-14T16:29:34;31.30;40.30